createdAt,value
2022-11-26T00:02:07.299Z,12.23
2022-11-26T00:04:35.574Z,11.95
2022-11-26T00:07:03.787Z,12.05
2022-11-26T00:09:31.884Z,12.32
2022-11-26T00:12:01.290Z,13.00
2022-11-26T00:14:29.273Z,11.50
2022-11-26T00:16:57.314Z,13.80
2022-11-26T00:19:25.519Z,11.88
2022-11-26T00:21:53.448Z,12.35
2022-11-26T00:24:26.780Z,11.68
2022-11-26T00:26:56.914Z,11.73
2022-11-26T00:29:26.570Z,12.60
2022-11-26T00:31:54.570Z,12.63
2022-11-26T00:34:22.796Z,13.80
2022-11-26T00:36:50.876Z,12.57
2022-11-26T00:39:23.538Z,12.80
2022-11-26T00:41:53.342Z,11.48
2022-11-26T00:44:23.461Z,11.55
2022-11-26T00:46:53.414Z,11.30
2022-11-26T00:49:21.787Z,13.18
2022-11-26T00:51:50.018Z,12.45
2022-11-26T00:54:20.342Z,13.10
2022-11-26T00:56:51.351Z,11.95
2022-11-26T00:59:21.889Z,11.75
2022-11-26T01:01:50.617Z,11.60
2022-11-26T01:04:20.022Z,11.15
2022-11-26T01:06:48.213Z,11.40
2022-11-26T01:09:19.493Z,10.43
2022-11-26T01:11:52.413Z,10.52
2022-11-26T01:14:22.757Z,11.85
2022-11-26T01:16:58.179Z,10.57
2022-11-26T01:19:27.537Z,10.85
2022-11-26T01:21:55.550Z,10.18
2022-11-26T01:24:23.521Z,10.77
2022-11-26T01:26:51.577Z,11.07
2022-11-26T01:29:20.682Z,10.75
2022-11-26T01:31:49.043Z,10.93
2022-11-26T01:34:17.101Z,9.95
2022-11-26T01:36:46.644Z,11.75
2022-11-26T01:39:17.343Z,10.77
2022-11-26T01:41:50.587Z,9.45
2022-11-26T01:44:21.992Z,10.75
2022-11-26T01:46:51.610Z,10.70
2022-11-26T01:49:22.612Z,10.52
2022-11-26T01:51:56.892Z,10.60
2022-11-26T01:54:25.070Z,11.13
2022-11-26T01:56:55.129Z,11.63
2022-11-26T01:59:27.220Z,11.80
2022-11-26T02:01:58.399Z,11.25
2022-11-26T02:04:29.359Z,11.32
2022-11-26T02:06:59.045Z,11.40
2022-11-26T02:09:28.556Z,12.93
2022-11-26T02:11:56.620Z,11.02
2022-11-26T02:14:26.884Z,13.05
2022-11-26T02:17:03.351Z,11.73
2022-11-26T02:20:04.075Z,12.80
2022-11-26T02:22:50.810Z,13.30
2022-11-26T02:25:22.184Z,11.52
2022-11-26T02:28:16.955Z,14.68
2022-11-26T02:30:49.185Z,16.55
2022-11-26T02:33:22.678Z,16.35
2022-11-26T02:35:55.284Z,14.95
2022-11-26T02:38:25.444Z,15.30
2022-11-26T02:40:53.894Z,15.32
2022-11-26T02:43:22.003Z,14.05
2022-11-26T02:45:56.118Z,12.48
2022-11-26T02:48:27.610Z,11.98
2022-11-26T02:50:59.195Z,13.00
2022-11-26T02:53:29.662Z,16.05
2022-11-26T02:56:03.496Z,12.82
2022-11-26T02:58:33.172Z,14.32
2022-11-26T03:01:07.073Z,15.80
2022-11-26T03:03:39.185Z,11.60
2022-11-26T03:06:10.825Z,14.63
2022-11-26T03:08:39.580Z,14.32
2022-11-26T03:11:07.933Z,12.25
2022-11-26T03:13:35.900Z,15.02
2022-11-26T03:16:05.806Z,12.63
2022-11-26T03:18:33.803Z,12.85
2022-11-26T03:21:01.833Z,12.75
2022-11-26T03:23:29.945Z,14.13
2022-11-26T03:25:57.933Z,14.25
2022-11-26T03:28:26.066Z,14.27
2022-11-26T03:30:54.636Z,13.02
2022-11-26T03:33:23.950Z,13.50
2022-11-26T03:35:51.914Z,14.32
2022-11-26T03:38:19.950Z,13.57
2022-11-26T03:40:55.943Z,14.05
2022-11-26T03:43:23.924Z,16.08
2022-11-26T03:45:51.928Z,14.85
2022-11-26T03:48:20.007Z,15.88
2022-11-26T03:50:49.351Z,16.17
2022-11-26T03:53:17.330Z,14.85
2022-11-26T03:55:46.023Z,14.93
2022-11-26T03:58:14.030Z,17.20
2022-11-26T04:00:42.205Z,15.63
2022-11-26T04:03:10.274Z,15.60
2022-11-26T04:05:38.312Z,13.00
2022-11-26T04:08:07.667Z,11.40
2022-11-26T04:10:35.610Z,14.20
2022-11-26T04:13:03.595Z,15.55
2022-11-26T04:15:31.561Z,13.63
2022-11-26T04:17:59.519Z,11.50
2022-11-26T04:20:27.487Z,12.40
2022-11-26T04:22:55.418Z,11.20
2022-11-26T04:25:24.716Z,12.43
2022-11-26T04:27:53.441Z,13.18
2022-11-26T04:30:21.497Z,15.77
2022-11-26T04:32:49.454Z,10.95
2022-11-26T04:35:17.635Z,14.77
2022-11-26T04:37:45.606Z,12.93
2022-11-26T04:40:14.469Z,15.00
2022-11-26T04:42:43.812Z,12.40
2022-11-26T04:45:12.403Z,13.60
2022-11-26T04:47:43.162Z,22.35
2022-11-26T04:50:12.650Z,13.73
2022-11-26T04:52:40.702Z,12.60
2022-11-26T04:55:09.215Z,11.68
2022-11-26T04:57:37.655Z,10.40
2022-11-26T05:00:08.520Z,12.80
2022-11-26T05:02:36.530Z,11.02
2022-11-26T05:05:04.610Z,10.52
2022-11-26T05:07:32.725Z,11.90
2022-11-26T05:10:00.786Z,11.93
2022-11-26T05:12:28.730Z,12.20
2022-11-26T05:14:56.672Z,12.05
2022-11-26T05:17:25.970Z,10.00
2022-11-26T05:19:53.907Z,10.93
2022-11-26T05:22:21.861Z,10.57
2022-11-26T05:24:50.011Z,9.80
2022-11-26T05:27:18.167Z,11.95
2022-11-26T05:29:46.117Z,11.10
2022-11-26T05:32:14.160Z,10.60
2022-11-26T05:34:43.648Z,7.82
2022-11-26T05:37:11.734Z,10.88
2022-11-26T05:39:39.671Z,9.88
2022-11-26T05:42:09.302Z,10.65
2022-11-26T05:44:38.128Z,9.77
2022-11-26T05:47:06.353Z,13.45
2022-11-26T05:49:34.345Z,12.38
2022-11-26T05:52:03.664Z,11.45
2022-11-26T05:54:31.638Z,9.52
2022-11-26T05:57:00.368Z,10.05
2022-11-26T05:59:28.774Z,8.77
2022-11-26T06:01:56.829Z,8.73
2022-11-26T06:04:25.247Z,9.50
2022-11-26T06:06:53.255Z,8.13
2022-11-26T06:09:24.682Z,7.40
2022-11-26T06:11:53.293Z,7.40
2022-11-26T06:14:21.295Z,7.05
2022-11-26T06:16:49.449Z,7.63
2022-11-26T06:19:17.407Z,7.10
2022-11-26T06:21:45.349Z,7.38
2022-11-26T06:24:13.413Z,7.82
2022-11-26T06:26:42.771Z,7.00
2022-11-26T06:29:10.854Z,8.13
2022-11-26T06:31:38.820Z,7.03
2022-11-26T06:34:09.017Z,7.22
2022-11-26T06:36:37.015Z,6.30
2022-11-26T06:39:05.045Z,6.32
2022-11-26T06:41:33.053Z,6.20
2022-11-26T06:44:02.570Z,7.78
2022-11-26T06:46:30.624Z,7.85
2022-11-26T06:49:02.442Z,7.88
2022-11-26T06:51:30.538Z,9.13
2022-11-26T06:53:59.037Z,8.90
2022-11-26T06:56:27.210Z,8.13
2022-11-26T06:58:56.076Z,8.85
2022-11-26T07:01:27.872Z,9.18
2022-11-26T07:03:56.028Z,9.55
2022-11-26T07:06:26.157Z,9.13
2022-11-26T07:08:56.165Z,8.05
2022-11-26T07:11:25.476Z,8.35
2022-11-26T07:13:53.699Z,8.85
2022-11-26T07:16:21.969Z,9.35
2022-11-26T07:18:56.424Z,8.82
2022-11-26T07:21:28.660Z,9.98
2022-11-26T07:23:56.894Z,12.45
2022-11-26T07:26:25.240Z,11.93
2022-11-26T07:28:54.154Z,10.55
2022-11-26T07:31:24.272Z,13.55
2022-11-26T07:33:53.926Z,11.70
2022-11-26T07:36:24.462Z,12.30
2022-11-26T07:38:54.906Z,12.48
2022-11-26T07:41:22.912Z,12.40
2022-11-26T07:43:50.934Z,12.20
2022-11-26T07:46:22.091Z,13.13
2022-11-26T07:48:53.892Z,13.20
2022-11-26T07:51:25.706Z,13.20
2022-11-26T07:53:54.233Z,12.43
2022-11-26T07:56:22.326Z,15.10
2022-11-26T07:58:51.886Z,15.27
2022-11-26T08:01:24.095Z,14.32
2022-11-26T08:03:52.561Z,14.85
2022-11-26T08:06:24.333Z,12.85
2022-11-26T08:08:52.849Z,12.65
2022-11-26T08:11:22.637Z,13.30
2022-11-26T08:13:54.176Z,13.55
2022-11-26T08:16:22.508Z,13.77
2022-11-26T08:18:54.556Z,18.92
2022-11-26T08:21:24.553Z,14.38
2022-11-26T08:23:53.181Z,17.08
2022-11-26T08:26:27.429Z,16.33
2022-11-26T08:29:01.976Z,11.48
2022-11-26T08:31:30.357Z,16.15
2022-11-26T08:33:59.270Z,14.15
2022-11-26T08:36:29.632Z,16.27
2022-11-26T08:38:58.045Z,13.95
2022-11-26T08:41:26.497Z,17.45
2022-11-26T08:44:10.124Z,17.00
2022-11-26T08:46:39.047Z,17.67
2022-11-26T08:49:08.622Z,17.52
2022-11-26T08:51:37.938Z,19.10
2022-11-26T08:54:05.974Z,23.17
2022-11-26T08:56:34.138Z,20.13
2022-11-26T08:59:02.261Z,20.00
2022-11-26T09:01:33.199Z,15.80
2022-11-26T09:04:03.082Z,18.13
2022-11-26T09:06:33.786Z,21.33
2022-11-26T09:09:17.441Z,16.77
2022-11-26T09:11:48.357Z,17.42
2022-11-26T09:14:17.981Z,17.75
2022-11-26T09:16:46.025Z,20.70
2022-11-26T09:19:15.464Z,20.33
2022-11-26T09:21:43.668Z,16.88
2022-11-26T09:24:13.002Z,14.07
2022-11-26T09:26:41.549Z,17.90
2022-11-26T09:29:11.305Z,20.63
2022-11-26T09:31:54.955Z,18.90
2022-11-26T09:34:27.218Z,16.17
2022-11-26T09:36:55.184Z,15.50
2022-11-26T09:39:24.490Z,16.23
2022-11-26T09:42:02.017Z,17.52
2022-11-26T09:44:45.010Z,19.40
2022-11-26T09:47:16.492Z,17.88
2022-11-26T09:50:00.446Z,19.95
2022-11-26T09:52:34.708Z,20.70
2022-11-26T09:55:13.635Z,18.73
2022-11-26T09:57:44.412Z,18.80
2022-11-26T10:00:24.483Z,20.45
2022-11-26T10:02:59.724Z,21.02
2022-11-26T10:05:40.496Z,21.52
2022-11-26T10:08:23.134Z,19.10
2022-11-26T10:11:02.530Z,20.17
2022-11-26T10:13:44.706Z,16.83
2022-11-26T10:16:26.363Z,16.63
2022-11-26T10:19:02.637Z,18.05
2022-11-26T10:21:57.602Z,18.10
2022-11-26T10:24:30.617Z,13.35
2022-11-26T10:27:02.421Z,17.40
2022-11-26T10:29:36.868Z,18.92
2022-11-26T10:32:14.654Z,16.05
2022-11-26T10:34:49.567Z,8.55
2022-11-26T10:37:17.886Z,12.57
2022-11-26T10:39:46.049Z,18.35
2022-11-26T10:42:18.950Z,17.13
2022-11-26T10:44:48.499Z,20.67
2022-11-26T10:47:31.281Z,22.30
2022-11-26T10:50:46.045Z,17.98
2022-11-26T10:53:07.716Z,18.58
2022-11-26T10:55:39.570Z,14.80
2022-11-26T10:58:16.772Z,20.90
2022-11-26T11:00:53.095Z,17.83
2022-11-26T11:03:38.572Z,15.70
2022-11-26T11:06:26.328Z,15.27
2022-11-26T11:08:54.716Z,22.20
2022-11-26T11:11:24.432Z,17.27
2022-11-26T11:13:54.355Z,15.73
2022-11-26T11:16:27.384Z,18.33
2022-11-26T11:18:57.866Z,17.10
2022-11-26T11:21:30.682Z,18.30
2022-11-26T11:24:09.442Z,15.00
2022-11-26T11:26:44.349Z,16.13
2022-11-26T11:29:32.879Z,13.40
2022-11-26T11:32:04.319Z,17.63
2022-11-26T11:34:35.121Z,16.40
2022-11-26T11:37:06.084Z,15.63
2022-11-26T11:39:36.300Z,18.65
2022-11-26T11:42:07.694Z,16.33
2022-11-26T11:44:43.630Z,14.75
2022-11-26T11:47:31.739Z,16.08
2022-11-26T11:50:21.814Z,12.05
2022-11-26T11:53:00.167Z,16.80
2022-11-26T11:55:37.808Z,13.48
2022-11-26T11:58:34.424Z,16.13
2022-11-26T12:01:12.524Z,18.17
2022-11-26T12:03:56.220Z,14.88
2022-11-26T12:06:33.929Z,14.15
2022-11-26T12:09:11.540Z,13.18
2022-11-26T12:11:53.116Z,15.07
2022-11-26T12:14:27.660Z,15.30
2022-11-26T12:17:03.721Z,15.55
2022-11-26T12:19:39.312Z,14.65
2022-11-26T12:22:16.014Z,17.10
2022-11-26T12:24:49.088Z,17.38
2022-11-26T12:27:27.131Z,13.93
2022-11-26T12:30:01.014Z,15.63
2022-11-26T12:32:36.003Z,14.32
2022-11-26T12:35:08.898Z,14.60
2022-11-26T12:37:41.519Z,15.45
2022-11-26T12:40:25.036Z,15.38
2022-11-26T12:42:58.953Z,17.60
2022-11-26T12:45:39.848Z,15.60
2022-11-26T12:48:22.769Z,18.02
2022-11-26T12:50:55.741Z,16.30
2022-11-26T12:53:40.886Z,16.17
2022-11-26T12:56:18.788Z,17.85
2022-11-26T12:58:54.820Z,15.77
2022-11-26T13:01:24.193Z,16.70
2022-11-26T13:04:08.687Z,15.07
2022-11-26T13:06:58.557Z,18.88
2022-11-26T13:09:38.138Z,14.20
2022-11-26T13:12:13.486Z,14.05
2022-11-26T13:14:47.203Z,21.95
2022-11-26T13:17:17.700Z,16.52
2022-11-26T13:19:50.917Z,16.40
2022-11-26T13:22:47.944Z,22.85
2022-11-26T13:25:52.221Z,14.07
2022-11-26T13:28:33.237Z,16.25
2022-11-26T13:31:19.471Z,15.13
2022-11-26T13:34:04.904Z,14.00
2022-11-26T13:36:58.416Z,14.27
2022-11-26T13:40:11.464Z,13.30
2022-11-26T13:43:04.819Z,13.25
2022-11-26T13:46:01.638Z,15.43
2022-11-26T13:48:37.937Z,11.68
2022-11-26T13:51:10.517Z,18.42
2022-11-26T13:53:44.921Z,15.48
2022-11-26T13:56:16.033Z,17.40
2022-11-26T13:58:47.588Z,12.43
2022-11-26T14:01:37.006Z,13.07
2022-11-26T14:04:07.795Z,13.05
2022-11-26T14:06:36.449Z,14.82
2022-11-26T14:09:06.656Z,15.55
2022-11-26T14:11:58.026Z,11.98
2022-11-26T14:14:37.259Z,15.60
2022-11-26T14:17:29.930Z,14.18
2022-11-26T14:20:12.007Z,12.77
2022-11-26T14:22:40.140Z,11.55
2022-11-26T14:25:14.258Z,13.15
2022-11-26T14:27:49.946Z,14.15
2022-11-26T14:30:22.063Z,11.77
2022-11-26T14:32:59.160Z,12.75
2022-11-26T14:35:33.998Z,14.18
2022-11-26T14:38:04.387Z,10.77
2022-11-26T14:40:35.361Z,11.65
2022-11-26T14:43:15.378Z,11.65
2022-11-26T14:45:44.410Z,11.38
2022-11-26T14:48:26.628Z,13.23
2022-11-26T14:50:56.679Z,11.73
2022-11-26T14:53:28.041Z,10.30
2022-11-26T14:55:57.953Z,12.18
2022-11-26T14:58:34.912Z,11.02
2022-11-26T15:01:09.205Z,15.55
2022-11-26T15:03:37.316Z,9.88
2022-11-26T15:06:05.824Z,22.45
2022-11-26T15:08:33.811Z,26.15
2022-11-26T15:11:06.570Z,21.65
2022-11-26T15:13:38.144Z,18.33
2022-11-26T15:16:27.489Z,15.80
2022-11-26T15:18:56.544Z,15.02
2022-11-26T15:21:26.956Z,21.05
2022-11-26T15:23:57.864Z,20.27
2022-11-26T15:26:32.832Z,17.50
2022-11-26T15:29:00.898Z,16.13
2022-11-26T15:31:40.581Z,19.98
2022-11-26T15:34:12.524Z,14.85
2022-11-26T15:36:40.828Z,16.77
2022-11-26T15:39:28.205Z,13.27
2022-11-26T15:42:02.436Z,15.68
2022-11-26T15:44:35.489Z,13.80
2022-11-26T15:47:07.288Z,17.33
2022-11-26T15:49:38.029Z,15.55
2022-11-26T15:52:09.453Z,14.32
2022-11-26T15:57:33.680Z,12.73
2022-11-26T16:00:06.293Z,9.23
2022-11-26T16:02:34.817Z,10.35
2022-11-26T16:05:05.469Z,10.60
2022-11-26T16:07:34.357Z,10.77
2022-11-26T16:10:22.384Z,12.98
2022-11-26T16:13:19.503Z,11.27
2022-11-26T16:15:50.676Z,9.10
2022-11-26T16:18:23.132Z,12.80
2022-11-26T16:20:51.234Z,10.00
2022-11-26T16:23:28.269Z,9.13
2022-11-26T16:26:23.888Z,8.52
2022-11-26T16:28:53.168Z,8.45
2022-11-26T16:31:21.331Z,9.57
2022-11-26T16:33:49.460Z,8.10
2022-11-26T16:36:23.711Z,9.48
2022-11-26T16:38:52.776Z,9.13
2022-11-26T16:41:22.875Z,7.82
2022-11-26T16:43:52.977Z,6.88
2022-11-26T16:46:24.451Z,6.20
2022-11-26T16:48:52.958Z,6.50
2022-11-26T16:51:21.947Z,5.68
2022-11-26T16:53:50.511Z,7.15
2022-11-26T16:56:22.033Z,6.15
2022-11-26T16:58:51.072Z,4.78
2022-11-26T17:01:20.905Z,5.13
2022-11-26T17:03:48.922Z,7.65
2022-11-26T17:06:21.486Z,5.45
2022-11-26T17:08:50.217Z,6.82
2022-11-26T17:11:20.686Z,6.22
2022-11-26T17:13:48.862Z,5.30
2022-11-26T17:16:19.141Z,7.43
2022-11-26T17:18:49.911Z,5.57
2022-11-26T17:21:18.030Z,5.38
2022-11-26T17:23:46.043Z,6.40
2022-11-26T17:26:19.861Z,5.30
2022-11-26T17:28:48.458Z,6.60
2022-11-26T17:31:17.124Z,5.88
2022-11-26T17:33:45.241Z,6.07
2022-11-26T17:36:19.660Z,21.02
2022-11-26T17:38:48.166Z,6.28
2022-11-26T17:41:16.637Z,5.70
2022-11-26T17:43:44.851Z,4.50
2022-11-26T17:46:18.123Z,4.75
2022-11-26T17:48:46.454Z,4.80
2022-11-26T17:51:16.710Z,4.28
2022-11-26T17:53:45.187Z,4.70
2022-11-26T17:56:18.808Z,4.20
2022-11-26T17:58:47.276Z,4.63
2022-11-26T18:01:16.155Z,4.53
2022-11-26T18:03:46.464Z,4.60
2022-11-26T18:06:20.618Z,5.40
2022-11-26T18:08:48.629Z,4.75
2022-11-26T18:11:19.949Z,4.90
2022-11-26T18:13:48.189Z,6.05
2022-11-26T18:16:16.161Z,4.72
2022-11-26T18:18:44.140Z,5.05
2022-11-26T18:21:13.361Z,5.35
2022-11-26T18:23:47.658Z,4.60
2022-11-26T18:26:18.145Z,5.50
2022-11-26T18:28:46.089Z,4.15
2022-11-26T18:31:14.161Z,5.65
2022-11-26T18:33:42.173Z,6.35
2022-11-26T18:36:10.753Z,8.02
2022-11-26T18:38:43.387Z,9.82
2022-11-26T18:41:11.317Z,12.50
2022-11-26T18:43:40.412Z,14.52
2022-11-26T18:46:15.797Z,27.40
2022-11-26T18:48:46.158Z,21.17
2022-11-26T18:51:14.777Z,25.25
2022-11-26T18:53:45.006Z,32.45
2022-11-26T18:56:15.504Z,35.70
2022-11-26T18:58:44.029Z,36.78
2022-11-26T19:01:19.755Z,23.75
2022-11-26T19:03:47.789Z,17.80
2022-11-26T19:06:17.908Z,18.85
2022-11-26T19:08:48.498Z,12.60
2022-11-26T19:11:19.712Z,11.45
2022-11-26T19:13:50.015Z,13.82
2022-11-26T19:16:20.541Z,13.07
2022-11-26T19:18:48.950Z,10.30
2022-11-26T19:21:19.582Z,11.05
2022-11-26T19:23:50.083Z,10.65
2022-11-26T19:26:18.749Z,11.63
2022-11-26T19:28:46.981Z,12.20
2022-11-26T19:31:17.134Z,11.45
2022-11-26T19:33:47.407Z,10.70
2022-11-26T19:36:17.734Z,10.18
2022-11-26T19:38:46.518Z,11.75
2022-11-26T19:41:15.921Z,10.45
2022-11-26T19:43:43.916Z,12.18
2022-11-26T19:46:14.404Z,11.13
2022-11-26T19:48:45.316Z,8.85
2022-11-26T19:51:15.316Z,10.82
2022-11-26T19:53:44.365Z,12.10
2022-11-26T19:56:16.248Z,12.60
2022-11-26T19:58:44.614Z,11.15
2022-11-26T20:01:15.539Z,11.38
2022-11-26T20:03:44.818Z,10.32
2022-11-26T20:06:16.021Z,10.57
2022-11-26T20:08:44.196Z,10.93
2022-11-26T20:11:12.646Z,10.50
2022-11-26T20:13:43.371Z,6.82
2022-11-26T20:16:14.218Z,9.15
2022-11-26T20:18:42.644Z,10.43
2022-11-26T20:21:12.558Z,8.93
2022-11-26T20:23:41.245Z,9.05
2022-11-26T20:26:16.690Z,12.18
2022-11-26T20:28:46.578Z,8.40
2022-11-26T20:31:20.506Z,9.60
2022-11-26T20:33:51.278Z,9.30
2022-11-26T20:36:20.786Z,8.93
2022-11-26T20:38:52.417Z,8.60
2022-11-26T20:41:20.887Z,8.13
2022-11-26T20:43:53.736Z,8.52
2022-11-26T20:46:26.962Z,10.15
2022-11-26T20:48:55.031Z,8.65
2022-11-26T20:51:24.188Z,7.45
2022-11-26T20:53:53.060Z,9.20
2022-11-26T20:56:22.717Z,9.55
2022-11-26T20:58:53.389Z,9.57
2022-11-26T21:01:23.611Z,8.82
2022-11-26T21:03:55.940Z,9.05
2022-11-26T21:06:29.694Z,9.73
2022-11-26T21:08:59.663Z,10.52
2022-11-26T21:11:27.702Z,8.18
2022-11-26T21:13:58.938Z,9.05
2022-11-26T21:16:27.287Z,9.05
2022-11-26T21:18:55.838Z,7.75
2022-11-26T21:21:25.280Z,8.73
2022-11-26T21:23:54.401Z,8.05
2022-11-26T21:26:25.872Z,7.70
2022-11-26T21:28:56.497Z,8.02
2022-11-26T21:31:25.527Z,7.53
2022-11-26T21:33:57.858Z,6.72
2022-11-26T21:36:26.638Z,7.32
2022-11-26T21:38:54.792Z,6.78
2022-11-26T21:41:23.622Z,7.22
2022-11-26T21:43:56.680Z,7.25
2022-11-26T21:46:26.471Z,6.57
2022-11-26T21:48:55.010Z,6.10
2022-11-26T21:51:24.091Z,5.22
2022-11-26T21:53:53.830Z,2.90
2022-11-26T21:56:23.577Z,5.90
2022-11-26T21:58:56.867Z,5.40
2022-11-26T22:01:28.093Z,5.85
2022-11-26T22:03:58.934Z,5.38
2022-11-26T22:06:27.527Z,5.80
2022-11-26T22:08:56.140Z,5.88
2022-11-26T22:11:26.233Z,5.15
2022-11-26T22:13:56.233Z,5.72
2022-11-26T22:16:26.467Z,6.22
2022-11-26T22:18:56.051Z,5.25
2022-11-26T22:21:26.077Z,4.90
2022-11-26T22:23:54.662Z,5.75
2022-11-26T22:26:23.252Z,5.82
2022-11-26T22:28:51.757Z,5.32
2022-11-26T22:31:22.835Z,5.20
2022-11-26T22:33:54.581Z,4.97
2022-11-26T22:36:22.591Z,4.90
2022-11-26T22:38:50.547Z,5.50
2022-11-26T22:41:19.600Z,4.88
2022-11-26T22:43:47.625Z,4.75
2022-11-26T22:46:18.836Z,5.47
2022-11-26T22:48:52.023Z,5.25
2022-11-26T22:51:20.665Z,5.47
2022-11-26T22:53:51.291Z,6.28
2022-11-26T22:56:20.025Z,5.40
2022-11-26T22:58:50.913Z,4.63
2022-11-26T23:01:21.502Z,5.75
2022-11-26T23:03:52.961Z,5.82
2022-11-26T23:06:22.877Z,6.45
2022-11-26T23:08:52.827Z,5.65
2022-11-26T23:11:24.501Z,4.88
2022-11-26T23:13:53.702Z,5.95
2022-11-26T23:16:25.099Z,6.30
2022-11-26T23:18:56.096Z,4.68
2022-11-26T23:21:26.135Z,6.20
2022-11-26T23:23:54.915Z,6.78
2022-11-26T23:26:27.251Z,6.18
2022-11-26T23:28:56.165Z,6.05
2022-11-26T23:31:30.736Z,5.35
2022-11-26T23:34:00.754Z,6.55
2022-11-26T23:36:30.080Z,6.68
2022-11-26T23:39:00.584Z,6.05
2022-11-26T23:41:28.683Z,5.95
2022-11-26T23:43:56.988Z,5.55
2022-11-26T23:46:26.611Z,6.38
2022-11-26T23:48:55.285Z,6.50
2022-11-26T23:51:26.083Z,6.57
2022-11-26T23:53:54.832Z,6.80
2022-11-26T23:56:24.551Z,5.50
2022-11-26T23:58:54.980Z,6.53
